sensor_id;sensor_type;location;lat;lon;timestamp;temperature;humidity
24448;DHT22;13348;50.984;5.822;2023-01-16T00:01:17;5.60;99.90
24448;DHT22;13348;50.984;5.822;2023-01-16T00:03:44;5.60;99.90
24448;DHT22;13348;50.984;5.822;2023-01-16T00:06:11;5.50;99.90
24448;DHT22;13348;50.984;5.822;2023-01-16T00:08:38;5.50;99.90
24448;DHT22;13348;50.984;5.822;2023-01-16T00:11:07;5.50;99.90
24448;DHT22;13348;50.984;5.822;2023-01-16T00:13:34;5.50;99.90
24448;DHT22;13348;50.984;5.822;2023-01-16T00:16:01;5.50;99.90
24448;DHT22;13348;50.984;5.822;2023-01-16T00:18:27;5.50;99.90
24448;DHT22;13348;50.984;5.822;2023-01-16T00:20:54;5.60;99.90
24448;DHT22;13348;50.984;5.822;2023-01-16T00:23:21;5.60;99.90
24448;DHT22;13348;50.984;5.822;2023-01-16T00:25:48;5.60;99.90
24448;DHT22;13348;50.984;5.822;2023-01-16T00:28:17;5.60;99.90
24448;DHT22;13348;50.984;5.822;2023-01-16T00:30:44;5.50;99.90
24448;DHT22;13348;50.984;5.822;2023-01-16T00:33:11;5.60;99.90
24448;DHT22;13348;50.984;5.822;2023-01-16T00:35:38;5.60;99.90
24448;DHT22;13348;50.984;5.822;2023-01-16T00:38:05;5.60;99.90
24448;DHT22;13348;50.984;5.822;2023-01-16T00:40:32;5.60;99.90
24448;DHT22;13348;50.984;5.822;2023-01-16T00:42:59;5.70;99.90
24448;DHT22;13348;50.984;5.822;2023-01-16T00:45:27;5.70;99.90
24448;DHT22;13348;50.984;5.822;2023-01-16T00:47:54;5.70;99.90
24448;DHT22;13348;50.984;5.822;2023-01-16T00:50:21;5.70;99.90
24448;DHT22;13348;50.984;5.822;2023-01-16T00:52:48;5.80;99.90
24448;DHT22;13348;50.984;5.822;2023-01-16T00:55:15;5.70;99.90
24448;DHT22;13348;50.984;5.822;2023-01-16T00:57:42;5.70;99.90
24448;DHT22;13348;50.984;5.822;2023-01-16T01:00:09;5.70;99.90
24448;DHT22;13348;50.984;5.822;2023-01-16T01:02:38;5.70;99.90
24448;DHT22;13348;50.984;5.822;2023-01-16T01:05:05;5.60;99.90
24448;DHT22;13348;50.984;5.822;2023-01-16T01:07:32;5.50;99.90
24448;DHT22;13348;50.984;5.822;2023-01-16T01:09:59;5.60;99.90
24448;DHT22;13348;50.984;5.822;2023-01-16T01:12:26;5.70;99.90
24448;DHT22;13348;50.984;5.822;2023-01-16T01:14:53;5.70;99.90
24448;DHT22;13348;50.984;5.822;2023-01-16T01:17:20;5.70;99.90
24448;DHT22;13348;50.984;5.822;2023-01-16T01:19:48;5.60;99.90
24448;DHT22;13348;50.984;5.822;2023-01-16T01:22:16;5.50;99.90
24448;DHT22;13348;50.984;5.822;2023-01-16T01:24:43;5.40;99.90
24448;DHT22;13348;50.984;5.822;2023-01-16T01:27:10;5.30;99.90
24448;DHT22;13348;50.984;5.822;2023-01-16T01:29:37;5.20;99.90
24448;DHT22;13348;50.984;5.822;2023-01-16T01:32:04;5.20;99.90
24448;DHT22;13348;50.984;5.822;2023-01-16T01:34:32;5.10;99.90
24448;DHT22;13348;50.984;5.822;2023-01-16T01:37:01;5.10;99.90
24448;DHT22;13348;50.984;5.822;2023-01-16T01:39:28;5.00;99.90
24448;DHT22;13348;50.984;5.822;2023-01-16T01:41:55;4.80;99.90
24448;DHT22;13348;50.984;5.822;2023-01-16T01:44:48;4.90;99.90
24448;DHT22;13348;50.984;5.822;2023-01-16T01:47:15;4.90;99.90
24448;DHT22;13348;50.984;5.822;2023-01-16T01:49:43;4.90;99.90
24448;DHT22;13348;50.984;5.822;2023-01-16T01:52:12;4.90;99.90
24448;DHT22;13348;50.984;5.822;2023-01-16T01:54:39;4.90;99.90
24448;DHT22;13348;50.984;5.822;2023-01-16T01:57:09;4.90;99.90
24448;DHT22;13348;50.984;5.822;2023-01-16T01:59:37;4.80;99.90
24448;DHT22;13348;50.984;5.822;2023-01-16T02:02:05;4.70;99.90
24448;DHT22;13348;50.984;5.822;2023-01-16T02:04:34;4.80;99.90
24448;DHT22;13348;50.984;5.822;2023-01-16T02:07:02;4.80;99.90
24448;DHT22;13348;50.984;5.822;2023-01-16T02:09:31;4.70;99.90
24448;DHT22;13348;50.984;5.822;2023-01-16T02:12:00;4.70;99.90
24448;DHT22;13348;50.984;5.822;2023-01-16T02:14:30;4.70;99.90
24448;DHT22;13348;50.984;5.822;2023-01-16T02:16:59;4.70;99.90
24448;DHT22;13348;50.984;5.822;2023-01-16T02:19:47;4.70;99.90
24448;DHT22;13348;50.984;5.822;2023-01-16T02:22:25;4.70;99.90
24448;DHT22;13348;50.984;5.822;2023-01-16T02:25:06;4.60;99.90
24448;DHT22;13348;50.984;5.822;2023-01-16T02:27:44;4.60;99.90
24448;DHT22;13348;50.984;5.822;2023-01-16T02:30:21;4.60;99.90
24448;DHT22;13348;50.984;5.822;2023-01-16T02:32:57;4.60;99.90
24448;DHT22;13348;50.984;5.822;2023-01-16T02:38:21;4.60;99.90
24448;DHT22;13348;50.984;5.822;2023-01-16T02:40:55;4.70;99.90
24448;DHT22;13348;50.984;5.822;2023-01-16T02:43:29;4.70;99.90
24448;DHT22;13348;50.984;5.822;2023-01-16T02:46:00;4.60;99.90
24448;DHT22;13348;50.984;5.822;2023-01-16T02:48:33;4.70;99.90
24448;DHT22;13348;50.984;5.822;2023-01-16T02:51:03;4.70;99.90
24448;DHT22;13348;50.984;5.822;2023-01-16T02:53:33;4.70;99.90
24448;DHT22;13348;50.984;5.822;2023-01-16T02:56:02;4.70;99.90
24448;DHT22;13348;50.984;5.822;2023-01-16T02:58:35;4.80;99.90
24448;DHT22;13348;50.984;5.822;2023-01-16T03:01:04;4.70;99.90
24448;DHT22;13348;50.984;5.822;2023-01-16T03:03:41;4.70;99.90
24448;DHT22;13348;50.984;5.822;2023-01-16T03:08:52;4.60;99.90
24448;DHT22;13348;50.984;5.822;2023-01-16T03:11:23;4.70;99.90
24448;DHT22;13348;50.984;5.822;2023-01-16T03:16:37;4.60;99.90
24448;DHT22;13348;50.984;5.822;2023-01-16T03:19:14;4.60;99.90
24448;DHT22;13348;50.984;5.822;2023-01-16T03:21:46;4.60;99.90
24448;DHT22;13348;50.984;5.822;2023-01-16T03:24:18;4.60;99.90
24448;DHT22;13348;50.984;5.822;2023-01-16T03:26:48;4.50;99.90
24448;DHT22;13348;50.984;5.822;2023-01-16T03:29:17;4.40;99.90
24448;DHT22;13348;50.984;5.822;2023-01-16T03:31:45;4.50;99.90
24448;DHT22;13348;50.984;5.822;2023-01-16T03:34:17;4.50;99.90
24448;DHT22;13348;50.984;5.822;2023-01-16T03:36:47;4.50;99.90
24448;DHT22;13348;50.984;5.822;2023-01-16T03:39:17;4.40;99.90
24448;DHT22;13348;50.984;5.822;2023-01-16T03:41:45;4.50;99.90
24448;DHT22;13348;50.984;5.822;2023-01-16T03:44:14;4.40;99.90
24448;DHT22;13348;50.984;5.822;2023-01-16T03:46:45;4.40;99.90
24448;DHT22;13348;50.984;5.822;2023-01-16T03:49:16;4.40;99.90
24448;DHT22;13348;50.984;5.822;2023-01-16T03:51:45;4.40;99.90
24448;DHT22;13348;50.984;5.822;2023-01-16T03:54:16;4.40;99.90
24448;DHT22;13348;50.984;5.822;2023-01-16T03:56:48;4.40;99.90
24448;DHT22;13348;50.984;5.822;2023-01-16T03:59:16;4.50;99.90
24448;DHT22;13348;50.984;5.822;2023-01-16T04:01:45;4.50;99.90
24448;DHT22;13348;50.984;5.822;2023-01-16T04:04:14;4.50;99.90
24448;DHT22;13348;50.984;5.822;2023-01-16T04:06:44;4.50;99.90
24448;DHT22;13348;50.984;5.822;2023-01-16T04:09:13;4.50;99.90
24448;DHT22;13348;50.984;5.822;2023-01-16T04:11:41;4.50;99.90
24448;DHT22;13348;50.984;5.822;2023-01-16T04:14:09;4.50;99.90
24448;DHT22;13348;50.984;5.822;2023-01-16T04:16:37;4.60;99.90
24448;DHT22;13348;50.984;5.822;2023-01-16T04:19:05;4.50;99.90
24448;DHT22;13348;50.984;5.822;2023-01-16T04:21:32;4.50;99.90
24448;DHT22;13348;50.984;5.822;2023-01-16T04:24:00;4.50;99.90
24448;DHT22;13348;50.984;5.822;2023-01-16T04:26:28;4.50;99.90
24448;DHT22;13348;50.984;5.822;2023-01-16T04:28:55;4.60;99.90
24448;DHT22;13348;50.984;5.822;2023-01-16T04:31:22;4.60;99.90
24448;DHT22;13348;50.984;5.822;2023-01-16T04:33:50;4.60;99.90
24448;DHT22;13348;50.984;5.822;2023-01-16T04:36:17;4.60;99.90
24448;DHT22;13348;50.984;5.822;2023-01-16T04:38:43;4.60;99.90
24448;DHT22;13348;50.984;5.822;2023-01-16T04:41:12;4.60;99.90
24448;DHT22;13348;50.984;5.822;2023-01-16T04:43:59;4.60;99.90
24448;DHT22;13348;50.984;5.822;2023-01-16T04:46:26;4.70;99.90
24448;DHT22;13348;50.984;5.822;2023-01-16T04:48:53;4.70;99.90
24448;DHT22;13348;50.984;5.822;2023-01-16T04:51:19;4.70;99.90
24448;DHT22;13348;50.984;5.822;2023-01-16T04:53:46;4.90;99.90
24448;DHT22;13348;50.984;5.822;2023-01-16T04:56:15;4.90;99.90
24448;DHT22;13348;50.984;5.822;2023-01-16T04:58:42;4.90;99.90
24448;DHT22;13348;50.984;5.822;2023-01-16T05:01:08;5.00;99.90
24448;DHT22;13348;50.984;5.822;2023-01-16T05:03:35;5.00;99.90
24448;DHT22;13348;50.984;5.822;2023-01-16T05:06:02;5.00;99.90
24448;DHT22;13348;50.984;5.822;2023-01-16T05:08:29;5.00;99.90
24448;DHT22;13348;50.984;5.822;2023-01-16T05:10:56;5.00;99.90
24448;DHT22;13348;50.984;5.822;2023-01-16T05:13:27;5.20;99.90
24448;DHT22;13348;50.984;5.822;2023-01-16T05:15:54;5.20;99.90
24448;DHT22;13348;50.984;5.822;2023-01-16T05:18:21;5.20;99.90
24448;DHT22;13348;50.984;5.822;2023-01-16T05:20:48;5.10;99.90
24448;DHT22;13348;50.984;5.822;2023-01-16T05:23:15;5.20;99.90
24448;DHT22;13348;50.984;5.822;2023-01-16T05:25:42;5.20;99.90
24448;DHT22;13348;50.984;5.822;2023-01-16T05:28:09;5.20;99.90
24448;DHT22;13348;50.984;5.822;2023-01-16T05:30:38;5.10;99.90
24448;DHT22;13348;50.984;5.822;2023-01-16T05:33:05;5.10;99.90
24448;DHT22;13348;50.984;5.822;2023-01-16T05:35:32;5.10;99.90
24448;DHT22;13348;50.984;5.822;2023-01-16T05:37:59;5.10;99.90
24448;DHT22;13348;50.984;5.822;2023-01-16T05:40:26;5.20;99.90
24448;DHT22;13348;50.984;5.822;2023-01-16T05:42:52;5.30;99.90
24448;DHT22;13348;50.984;5.822;2023-01-16T05:45:19;5.30;99.90
24448;DHT22;13348;50.984;5.822;2023-01-16T05:47:48;5.40;99.90
24448;DHT22;13348;50.984;5.822;2023-01-16T05:50:15;5.30;99.90
24448;DHT22;13348;50.984;5.822;2023-01-16T05:52:42;5.40;99.90
24448;DHT22;13348;50.984;5.822;2023-01-16T05:55:08;5.50;99.90
24448;DHT22;13348;50.984;5.822;2023-01-16T05:57:35;5.60;99.90
24448;DHT22;13348;50.984;5.822;2023-01-16T06:00:03;5.60;99.90
24448;DHT22;13348;50.984;5.822;2023-01-16T06:02:30;5.70;99.90
24448;DHT22;13348;50.984;5.822;2023-01-16T06:04:58;5.70;99.90
24448;DHT22;13348;50.984;5.822;2023-01-16T06:07:25;5.70;99.90
24448;DHT22;13348;50.984;5.822;2023-01-16T06:09:52;5.80;99.90
24448;DHT22;13348;50.984;5.822;2023-01-16T06:12:19;5.70;99.90
24448;DHT22;13348;50.984;5.822;2023-01-16T06:14:46;5.70;99.90
24448;DHT22;13348;50.984;5.822;2023-01-16T06:17:13;5.80;99.90
24448;DHT22;13348;50.984;5.822;2023-01-16T06:19:41;5.80;99.90
24448;DHT22;13348;50.984;5.822;2023-01-16T06:22:09;5.80;99.90
24448;DHT22;13348;50.984;5.822;2023-01-16T06:24:36;6.00;99.90
24448;DHT22;13348;50.984;5.822;2023-01-16T06:27:03;6.10;99.90
24448;DHT22;13348;50.984;5.822;2023-01-16T06:29:30;6.10;99.90
24448;DHT22;13348;50.984;5.822;2023-01-16T06:31:57;6.00;99.90
24448;DHT22;13348;50.984;5.822;2023-01-16T06:34:24;5.90;99.90
24448;DHT22;13348;50.984;5.822;2023-01-16T06:36:51;5.90;99.90
24448;DHT22;13348;50.984;5.822;2023-01-16T06:39:19;5.90;99.90
24448;DHT22;13348;50.984;5.822;2023-01-16T06:41:46;5.90;99.90
24448;DHT22;13348;50.984;5.822;2023-01-16T06:44:13;5.70;99.90
24448;DHT22;13348;50.984;5.822;2023-01-16T06:46:40;5.60;99.90
24448;DHT22;13348;50.984;5.822;2023-01-16T06:49:08;5.40;99.90
24448;DHT22;13348;50.984;5.822;2023-01-16T06:51:35;5.40;99.90
24448;DHT22;13348;50.984;5.822;2023-01-16T06:54:03;5.40;99.90
24448;DHT22;13348;50.984;5.822;2023-01-16T06:56:31;5.20;99.90
24448;DHT22;13348;50.984;5.822;2023-01-16T06:58:58;5.30;99.90
24448;DHT22;13348;50.984;5.822;2023-01-16T07:01:25;5.30;99.90
24448;DHT22;13348;50.984;5.822;2023-01-16T07:03:52;5.20;99.90
24448;DHT22;13348;50.984;5.822;2023-01-16T07:06:19;5.30;99.90
24448;DHT22;13348;50.984;5.822;2023-01-16T07:08:46;5.40;99.90
24448;DHT22;13348;50.984;5.822;2023-01-16T07:11:18;5.30;99.90
24448;DHT22;13348;50.984;5.822;2023-01-16T07:13:47;5.30;99.90
24448;DHT22;13348;50.984;5.822;2023-01-16T07:16:14;5.30;99.90
24448;DHT22;13348;50.984;5.822;2023-01-16T07:18:58;5.20;99.90
24448;DHT22;13348;50.984;5.822;2023-01-16T07:21:43;5.20;99.90
24448;DHT22;13348;50.984;5.822;2023-01-16T07:24:29;5.20;99.90
24448;DHT22;13348;50.984;5.822;2023-01-16T07:26:59;5.20;99.90
24448;DHT22;13348;50.984;5.822;2023-01-16T07:29:29;5.20;99.90
24448;DHT22;13348;50.984;5.822;2023-01-16T07:31:56;5.20;99.90
24448;DHT22;13348;50.984;5.822;2023-01-16T07:34:24;5.30;99.90
24448;DHT22;13348;50.984;5.822;2023-01-16T07:36:51;5.40;99.90
24448;DHT22;13348;50.984;5.822;2023-01-16T07:39:17;5.30;99.90
24448;DHT22;13348;50.984;5.822;2023-01-16T07:41:45;5.30;99.90
24448;DHT22;13348;50.984;5.822;2023-01-16T07:44:14;5.30;99.90
24448;DHT22;13348;50.984;5.822;2023-01-16T07:46:42;5.30;99.90
24448;DHT22;13348;50.984;5.822;2023-01-16T07:49:09;5.40;99.90
24448;DHT22;13348;50.984;5.822;2023-01-16T07:51:36;5.40;99.90
24448;DHT22;13348;50.984;5.822;2023-01-16T07:54:04;5.50;99.90
24448;DHT22;13348;50.984;5.822;2023-01-16T07:56:31;5.40;99.90
24448;DHT22;13348;50.984;5.822;2023-01-16T07:58:58;5.40;99.90
24448;DHT22;13348;50.984;5.822;2023-01-16T08:01:25;5.40;99.90
24448;DHT22;13348;50.984;5.822;2023-01-16T08:03:54;5.50;99.90
24448;DHT22;13348;50.984;5.822;2023-01-16T08:06:21;5.50;99.90
24448;DHT22;13348;50.984;5.822;2023-01-16T08:08:48;5.50;99.90
24448;DHT22;13348;50.984;5.822;2023-01-16T08:11:15;5.60;99.90
24448;DHT22;13348;50.984;5.822;2023-01-16T08:13:56;5.60;99.90
24448;DHT22;13348;50.984;5.822;2023-01-16T08:16:23;5.60;99.90
24448;DHT22;13348;50.984;5.822;2023-01-16T08:18:50;5.70;99.90
24448;DHT22;13348;50.984;5.822;2023-01-16T08:21:18;5.70;99.90
24448;DHT22;13348;50.984;5.822;2023-01-16T08:23:45;5.60;99.90
24448;DHT22;13348;50.984;5.822;2023-01-16T08:26:13;5.60;99.90
24448;DHT22;13348;50.984;5.822;2023-01-16T08:28:40;5.70;99.90
24448;DHT22;13348;50.984;5.822;2023-01-16T08:31:07;5.60;99.90
24448;DHT22;13348;50.984;5.822;2023-01-16T08:33:37;5.60;99.90
24448;DHT22;13348;50.984;5.822;2023-01-16T08:36:04;5.60;99.90
24448;DHT22;13348;50.984;5.822;2023-01-16T08:38:33;5.50;99.90
24448;DHT22;13348;50.984;5.822;2023-01-16T08:41:00;5.60;99.90
24448;DHT22;13348;50.984;5.822;2023-01-16T08:43:27;5.50;99.90
24448;DHT22;13348;50.984;5.822;2023-01-16T08:46:14;5.60;99.90
24448;DHT22;13348;50.984;5.822;2023-01-16T08:49:01;5.60;99.90
24448;DHT22;13348;50.984;5.822;2023-01-16T08:51:45;5.60;99.90
24448;DHT22;13348;50.984;5.822;2023-01-16T08:54:14;5.70;99.90
24448;DHT22;13348;50.984;5.822;2023-01-16T08:56:41;5.50;99.90
24448;DHT22;13348;50.984;5.822;2023-01-16T08:59:08;5.60;99.90
24448;DHT22;13348;50.984;5.822;2023-01-16T09:01:36;5.60;99.90
24448;DHT22;13348;50.984;5.822;2023-01-16T09:04:04;5.60;99.90
24448;DHT22;13348;50.984;5.822;2023-01-16T09:06:31;5.60;99.90
24448;DHT22;13348;50.984;5.822;2023-01-16T09:09:01;5.60;99.90
24448;DHT22;13348;50.984;5.822;2023-01-16T09:11:30;5.60;99.90
24448;DHT22;13348;50.984;5.822;2023-01-16T09:14:14;5.60;99.90
24448;DHT22;13348;50.984;5.822;2023-01-16T09:16:41;5.50;99.90
24448;DHT22;13348;50.984;5.822;2023-01-16T09:19:08;5.60;99.90
24448;DHT22;13348;50.984;5.822;2023-01-16T09:21:35;5.60;99.90
24448;DHT22;13348;50.984;5.822;2023-01-16T09:24:02;5.60;99.90
24448;DHT22;13348;50.984;5.822;2023-01-16T09:26:30;5.60;99.90
24448;DHT22;13348;50.984;5.822;2023-01-16T09:28:57;5.50;99.90
24448;DHT22;13348;50.984;5.822;2023-01-16T09:31:24;5.60;99.90
24448;DHT22;13348;50.984;5.822;2023-01-16T09:33:51;5.60;99.90
24448;DHT22;13348;50.984;5.822;2023-01-16T09:36:20;5.70;99.90
24448;DHT22;13348;50.984;5.822;2023-01-16T09:38:47;5.70;99.90
24448;DHT22;13348;50.984;5.822;2023-01-16T09:41:14;5.70;99.90
24448;DHT22;13348;50.984;5.822;2023-01-16T09:44:04;5.70;99.90
24448;DHT22;13348;50.984;5.822;2023-01-16T09:46:33;5.70;99.90
24448;DHT22;13348;50.984;5.822;2023-01-16T09:49:03;5.80;99.90
24448;DHT22;13348;50.984;5.822;2023-01-16T09:51:31;5.80;99.90
24448;DHT22;13348;50.984;5.822;2023-01-16T09:54:00;5.80;99.90
24448;DHT22;13348;50.984;5.822;2023-01-16T09:56:46;5.90;99.90
24448;DHT22;13348;50.984;5.822;2023-01-16T09:59:35;6.20;99.90
24448;DHT22;13348;50.984;5.822;2023-01-16T10:02:05;6.60;99.90
24448;DHT22;13348;50.984;5.822;2023-01-16T10:04:34;6.90;99.90
24448;DHT22;13348;50.984;5.822;2023-01-16T10:07:09;7.10;99.90
24448;DHT22;13348;50.984;5.822;2023-01-16T10:09:40;7.00;99.90
24448;DHT22;13348;50.984;5.822;2023-01-16T10:12:10;7.40;99.90
24448;DHT22;13348;50.984;5.822;2023-01-16T10:14:52;7.50;99.90
24448;DHT22;13348;50.984;5.822;2023-01-16T10:17:23;7.50;99.90
24448;DHT22;13348;50.984;5.822;2023-01-16T10:20:02;7.80;99.90
24448;DHT22;13348;50.984;5.822;2023-01-16T10:22:38;7.50;99.90
24448;DHT22;13348;50.984;5.822;2023-01-16T10:25:11;7.20;99.90
24448;DHT22;13348;50.984;5.822;2023-01-16T10:27:41;7.00;99.90
24448;DHT22;13348;50.984;5.822;2023-01-16T10:30:12;7.10;99.90
24448;DHT22;13348;50.984;5.822;2023-01-16T10:32:42;7.10;99.90
24448;DHT22;13348;50.984;5.822;2023-01-16T10:35:12;7.30;99.90
24448;DHT22;13348;50.984;5.822;2023-01-16T10:37:40;7.80;99.90
24448;DHT22;13348;50.984;5.822;2023-01-16T10:40:10;8.50;99.90
24448;DHT22;13348;50.984;5.822;2023-01-16T10:42:38;8.60;99.90
24448;DHT22;13348;50.984;5.822;2023-01-16T10:45:26;8.60;99.90
24448;DHT22;13348;50.984;5.822;2023-01-16T10:48:12;8.50;99.90
24448;DHT22;13348;50.984;5.822;2023-01-16T10:50:57;8.20;99.90
24448;DHT22;13348;50.984;5.822;2023-01-16T10:53:24;8.00;99.90
24448;DHT22;13348;50.984;5.822;2023-01-16T10:55:52;7.90;99.90
24448;DHT22;13348;50.984;5.822;2023-01-16T10:58:22;7.90;99.90
24448;DHT22;13348;50.984;5.822;2023-01-16T11:00:52;8.10;99.90
24448;DHT22;13348;50.984;5.822;2023-01-16T11:03:23;7.90;99.90
24448;DHT22;13348;50.984;5.822;2023-01-16T11:05:54;7.70;99.90
24448;DHT22;13348;50.984;5.822;2023-01-16T11:08:32;7.70;99.90
24448;DHT22;13348;50.984;5.822;2023-01-16T11:11:00;7.50;99.90
24448;DHT22;13348;50.984;5.822;2023-01-16T11:13:27;7.50;99.90
24448;DHT22;13348;50.984;5.822;2023-01-16T11:16:18;7.50;99.90
24448;DHT22;13348;50.984;5.822;2023-01-16T11:19:15;7.60;99.90
24448;DHT22;13348;50.984;5.822;2023-01-16T11:21:42;7.40;99.90
24448;DHT22;13348;50.984;5.822;2023-01-16T11:24:10;7.30;99.90
24448;DHT22;13348;50.984;5.822;2023-01-16T11:26:41;7.30;99.90
24448;DHT22;13348;50.984;5.822;2023-01-16T11:29:10;7.20;99.90
24448;DHT22;13348;50.984;5.822;2023-01-16T11:31:41;7.20;99.90
24448;DHT22;13348;50.984;5.822;2023-01-16T11:34:10;7.10;99.90
24448;DHT22;13348;50.984;5.822;2023-01-16T11:36:40;7.00;99.90
24448;DHT22;13348;50.984;5.822;2023-01-16T11:39:15;7.00;99.90
24448;DHT22;13348;50.984;5.822;2023-01-16T11:41:44;7.00;99.90
24448;DHT22;13348;50.984;5.822;2023-01-16T11:44:13;7.10;99.90
24448;DHT22;13348;50.984;5.822;2023-01-16T11:47:01;7.10;99.90
24448;DHT22;13348;50.984;5.822;2023-01-16T11:49:32;7.10;99.90
24448;DHT22;13348;50.984;5.822;2023-01-16T11:52:00;7.10;99.90
24448;DHT22;13348;50.984;5.822;2023-01-16T11:54:29;7.20;99.90
24448;DHT22;13348;50.984;5.822;2023-01-16T11:57:03;7.10;99.90
24448;DHT22;13348;50.984;5.822;2023-01-16T11:59:45;7.20;99.90
24448;DHT22;13348;50.984;5.822;2023-01-16T12:02:18;7.30;99.90
24448;DHT22;13348;50.984;5.822;2023-01-16T12:04:48;7.80;99.90
24448;DHT22;13348;50.984;5.822;2023-01-16T12:07:32;8.00;99.90
24448;DHT22;13348;50.984;5.822;2023-01-16T12:10:01;8.00;99.90
24448;DHT22;13348;50.984;5.822;2023-01-16T12:12:32;8.60;99.90
24448;DHT22;13348;50.984;5.822;2023-01-16T12:15:19;8.20;99.90
24448;DHT22;13348;50.984;5.822;2023-01-16T12:18:00;8.50;99.90
24448;DHT22;13348;50.984;5.822;2023-01-16T12:20:33;8.90;99.90
24448;DHT22;13348;50.984;5.822;2023-01-16T12:23:12;8.80;99.90
24448;DHT22;13348;50.984;5.822;2023-01-16T12:25:45;8.40;99.90
24448;DHT22;13348;50.984;5.822;2023-01-16T12:28:18;7.70;99.90
24448;DHT22;13348;50.984;5.822;2023-01-16T12:30:55;7.40;99.90
24448;DHT22;13348;50.984;5.822;2023-01-16T12:33:35;7.30;99.90
24448;DHT22;13348;50.984;5.822;2023-01-16T12:36:06;7.20;99.90
24448;DHT22;13348;50.984;5.822;2023-01-16T12:38:35;7.10;99.90
24448;DHT22;13348;50.984;5.822;2023-01-16T12:41:09;7.10;99.90
24448;DHT22;13348;50.984;5.822;2023-01-16T12:43:58;7.10;99.90
24448;DHT22;13348;50.984;5.822;2023-01-16T12:46:29;7.00;99.90
24448;DHT22;13348;50.984;5.822;2023-01-16T12:49:04;6.90;99.90
24448;DHT22;13348;50.984;5.822;2023-01-16T12:51:35;6.80;99.90
24448;DHT22;13348;50.984;5.822;2023-01-16T12:56:59;6.90;99.90
24448;DHT22;13348;50.984;5.822;2023-01-16T12:59:29;6.90;99.90
24448;DHT22;13348;50.984;5.822;2023-01-16T13:01:59;6.80;99.90
24448;DHT22;13348;50.984;5.822;2023-01-16T13:04:28;6.80;99.90
24448;DHT22;13348;50.984;5.822;2023-01-16T13:06:57;6.80;99.90
24448;DHT22;13348;50.984;5.822;2023-01-16T13:09:26;6.80;99.90
24448;DHT22;13348;50.984;5.822;2023-01-16T13:12:00;6.80;99.90
24448;DHT22;13348;50.984;5.822;2023-01-16T13:14:48;6.70;99.90
24448;DHT22;13348;50.984;5.822;2023-01-16T13:17:17;6.80;99.90
24448;DHT22;13348;50.984;5.822;2023-01-16T13:19:47;6.70;99.90
24448;DHT22;13348;50.984;5.822;2023-01-16T13:22:19;6.70;99.90
24448;DHT22;13348;50.984;5.822;2023-01-16T13:24:53;6.70;99.90
24448;DHT22;13348;50.984;5.822;2023-01-16T13:27:22;6.70;99.90
24448;DHT22;13348;50.984;5.822;2023-01-16T13:29:53;6.50;99.90
24448;DHT22;13348;50.984;5.822;2023-01-16T13:32:22;6.40;99.90
24448;DHT22;13348;50.984;5.822;2023-01-16T13:34:52;6.40;99.90
24448;DHT22;13348;50.984;5.822;2023-01-16T13:37:33;6.40;99.90
24448;DHT22;13348;50.984;5.822;2023-01-16T13:40:08;6.30;99.90
24448;DHT22;13348;50.984;5.822;2023-01-16T13:42:47;6.30;99.90
24448;DHT22;13348;50.984;5.822;2023-01-16T13:45:16;6.30;99.90
24448;DHT22;13348;50.984;5.822;2023-01-16T13:48:03;6.30;99.90
24448;DHT22;13348;50.984;5.822;2023-01-16T13:50:31;6.30;99.90
24448;DHT22;13348;50.984;5.822;2023-01-16T13:53:02;6.30;99.90
24448;DHT22;13348;50.984;5.822;2023-01-16T13:55:31;6.30;99.90
24448;DHT22;13348;50.984;5.822;2023-01-16T13:58:06;6.30;99.90
24448;DHT22;13348;50.984;5.822;2023-01-16T14:00:33;6.20;99.90
24448;DHT22;13348;50.984;5.822;2023-01-16T14:03:02;6.20;99.90
24448;DHT22;13348;50.984;5.822;2023-01-16T14:05:44;6.10;99.90
24448;DHT22;13348;50.984;5.822;2023-01-16T14:11:33;5.80;99.90
24448;DHT22;13348;50.984;5.822;2023-01-16T14:17:06;5.70;99.90
24448;DHT22;13348;50.984;5.822;2023-01-16T14:19:35;5.60;99.90
24448;DHT22;13348;50.984;5.822;2023-01-16T14:22:04;5.40;99.90
24448;DHT22;13348;50.984;5.822;2023-01-16T14:24:45;5.40;99.90
24448;DHT22;13348;50.984;5.822;2023-01-16T14:27:14;5.30;99.90
24448;DHT22;13348;50.984;5.822;2023-01-16T14:29:45;5.20;99.90
24448;DHT22;13348;50.984;5.822;2023-01-16T14:32:15;5.20;99.90
24448;DHT22;13348;50.984;5.822;2023-01-16T14:34:46;5.20;99.90
24448;DHT22;13348;50.984;5.822;2023-01-16T14:37:19;5.20;99.90
24448;DHT22;13348;50.984;5.822;2023-01-16T14:39:48;5.20;99.90
24448;DHT22;13348;50.984;5.822;2023-01-16T14:42:16;5.10;99.90
24448;DHT22;13348;50.984;5.822;2023-01-16T14:48:08;5.10;99.90
24448;DHT22;13348;50.984;5.822;2023-01-16T14:50:54;5.00;99.90
24448;DHT22;13348;50.984;5.822;2023-01-16T14:53:40;5.10;99.90
24448;DHT22;13348;50.984;5.822;2023-01-16T14:56:25;5.00;99.90
24448;DHT22;13348;50.984;5.822;2023-01-16T14:58:54;5.00;99.90
24448;DHT22;13348;50.984;5.822;2023-01-16T15:01:25;4.90;99.90
24448;DHT22;13348;50.984;5.822;2023-01-16T15:04:09;4.90;99.90
24448;DHT22;13348;50.984;5.822;2023-01-16T15:06:40;4.90;99.90
24448;DHT22;13348;50.984;5.822;2023-01-16T15:11:43;4.80;99.90
24448;DHT22;13348;50.984;5.822;2023-01-16T15:14:12;4.80;99.90
24448;DHT22;13348;50.984;5.822;2023-01-16T15:16:57;4.70;99.90
24448;DHT22;13348;50.984;5.822;2023-01-16T15:19:54;4.70;99.90
24448;DHT22;13348;50.984;5.822;2023-01-16T15:22:40;4.70;99.90
24448;DHT22;13348;50.984;5.822;2023-01-16T15:25:10;4.70;99.90
24448;DHT22;13348;50.984;5.822;2023-01-16T15:27:42;4.80;99.90
24448;DHT22;13348;50.984;5.822;2023-01-16T15:30:12;4.80;99.90
24448;DHT22;13348;50.984;5.822;2023-01-16T15:32:52;4.80;99.90
24448;DHT22;13348;50.984;5.822;2023-01-16T15:35:20;4.80;99.90
24448;DHT22;13348;50.984;5.822;2023-01-16T15:37:48;4.80;99.90
24448;DHT22;13348;50.984;5.822;2023-01-16T15:40:23;4.70;99.90
24448;DHT22;13348;50.984;5.822;2023-01-16T15:42:52;4.80;99.90
24448;DHT22;13348;50.984;5.822;2023-01-16T15:45:36;4.80;99.90
24448;DHT22;13348;50.984;5.822;2023-01-16T15:48:29;4.80;99.90
24448;DHT22;13348;50.984;5.822;2023-01-16T15:51:01;4.80;99.90
24448;DHT22;13348;50.984;5.822;2023-01-16T15:53:30;4.80;99.90
24448;DHT22;13348;50.984;5.822;2023-01-16T15:56:00;4.80;99.90
24448;DHT22;13348;50.984;5.822;2023-01-16T15:58:30;4.80;99.90
24448;DHT22;13348;50.984;5.822;2023-01-16T16:00:58;4.90;99.90
24448;DHT22;13348;50.984;5.822;2023-01-16T16:03:27;4.90;99.90
24448;DHT22;13348;50.984;5.822;2023-01-16T16:05:57;5.00;99.90
24448;DHT22;13348;50.984;5.822;2023-01-16T16:08:25;5.00;99.90
24448;DHT22;13348;50.984;5.822;2023-01-16T16:10:53;5.10;99.90
24448;DHT22;13348;50.984;5.822;2023-01-16T16:13:39;5.10;99.90
24448;DHT22;13348;50.984;5.822;2023-01-16T16:16:15;5.20;99.90
24448;DHT22;13348;50.984;5.822;2023-01-16T16:18:59;5.10;99.90
24448;DHT22;13348;50.984;5.822;2023-01-16T16:21:27;5.10;99.90
24448;DHT22;13348;50.984;5.822;2023-01-16T16:23:56;5.00;99.90
24448;DHT22;13348;50.984;5.822;2023-01-16T16:26:23;5.00;99.90
24448;DHT22;13348;50.984;5.822;2023-01-16T16:28:52;5.00;99.90
24448;DHT22;13348;50.984;5.822;2023-01-16T16:31:22;5.00;99.90